Time;durP1;ratioP1;P1;durP2;ratioP2;P2;SDS_P1;SDS_P2;PMS_P1;PMS_P2;Temp;Humidity;BMP_temperature;BMP_pressure;BME280_temperature;BME280_humidity;BME280_pressure;Samples;Min_cycle;Max_cycle;Signal;HPM_P1;HPM_P2
2023/11/27 00:01:32;;;;;;;15.10;5.60;;;;;;;-2.24;100.00;99951.15;223450;1266;391371;-80
2023/11/27 00:07:33;;;;;;;14.20;6.30;;;;;;;-2.15;100.00;99949.66;223203;1265;139905;-81
2023/11/27 00:13:34;;;;;;;11.90;5.60;;;;;;;-2.08;100.00;99950.73;223767;1265;139141;-81
2023/11/27 00:25:37;;;;;;;16.20;6.20;;;;;;;-1.93;100.00;99949.02;223655;1265;139375;-81
2023/11/27 00:31:36;;;;;;;;;;;;;;;;;;;;;
2023/11/27 00:37:37;;;;;;;14.40;5.70;;;;;;;-1.77;100.00;99955.42;223241;1265;139998;-82
2023/11/27 00:43:39;;;;;;;12.60;5.40;;;;;;;-1.70;100.00;99954.35;223676;1269;139498;-80
2023/11/27 00:49:24;;;;;;;;;;;;;;;;;;;;;
2023/11/27 00:55:26;;;;;;;15.40;6.50;;;;;;;-1.58;100.00;99950.04;223752;1265;139587;-80
2023/11/27 01:01:19;;;;;;;;;;;;;;;;;;;;;
2023/11/27 01:07:11;;;;;;;14.50;6.40;;;;;;;-1.49;100.00;99939.38;223251;1265;140223;-80
2023/11/27 01:13:04;;;;;;;12.50;5.50;;;;;;;-1.45;100.00;99936.63;223896;1265;105339;-80
2023/11/27 01:24:55;;;;;;;14.70;5.80;;;;;;;-1.37;100.00;99935.19;223976;1266;103023;-80
2023/11/27 01:30:56;;;;;;;13.60;5.60;;;;;;;-1.33;100.00;99930.88;223279;1266;140013;-80
2023/11/27 01:36:58;;;;;;;14.20;5.80;;;;;;;-1.29;100.00;99927.18;223332;1267;140232;-80
2023/11/27 01:42:51;;;;;;;13.50;5.40;;;;;;;-1.24;100.00;99914.75;223852;1269;105153;-80
2023/11/27 01:48:46;;;;;;;13.70;5.60;;;;;;;-1.23;100.00;99907.75;223258;1265;140025;-79
2023/11/27 01:54:27;;;;;;;15.90;6.50;;;;;;;-1.21;100.00;99908.98;223749;1266;139213;-80
2023/11/27 02:06:29;;;;;;;17.50;6.80;;;;;;;-1.15;100.00;99909.34;223098;1265;139974;-80
2023/11/27 02:12:31;;;;;;;19.00;7.10;;;;;;;-1.11;100.00;99908.08;223864;1269;138911;-81
2023/11/27 02:24:28;;;;;;;13.90;6.20;;;;;;;-1.06;100.00;99901.48;223758;1269;139002;-82
2023/11/27 02:30:29;;;;;;;20.00;7.50;;;;;;;-1.03;100.00;99900.32;223224;1266;139734;-81
2023/11/27 02:36:30;;;;;;;12.50;5.90;;;;;;;-0.99;100.00;99897.18;223143;1269;139925;-81
2023/11/27 02:42:30;;;;;;;12.00;5.80;;;;;;;-0.96;100.00;99892.52;223647;1266;139329;-81
2023/11/27 02:48:31;;;;;;;15.10;5.70;;;;;;;-0.96;100.00;99889.75;223213;1266;140000;-81
2023/11/27 02:54:24;;;;;;;14.90;6.80;;;;;;;-0.98;100.00;99878.30;223727;1265;139061;-81
2023/11/27 03:00:27;;;;;;;12.50;5.90;;;;;;;-1.01;100.00;99875.00;223245;1265;140167;-81
2023/11/27 03:06:27;;;;;;;16.70;7.00;;;;;;;-1.10;100.00;99873.10;223231;1269;139812;-81
2023/11/27 03:12:28;;;;;;;17.40;7.50;;;;;;;-1.18;100.00;99867.77;223732;1269;138852;-80
2023/11/27 03:18:29;;;;;;;16.60;6.90;;;;;;;-1.20;100.00;99869.89;223183;1265;140587;-81
2023/11/27 03:24:31;;;;;;;12.60;6.50;;;;;;;-1.26;100.00;99875.17;223744;1266;139416;-81
2023/11/27 03:30:29;;;;;;;13.40;6.00;;;;;;;-1.36;100.00;99869.44;223088;1266;139139;-81
2023/11/27 03:36:17;;;;;;;13.40;6.40;;;;;;;-1.44;100.00;99868.04;223243;1265;139960;-81
2023/11/27 03:42:17;;;;;;;13.80;6.30;;;;;;;-1.48;100.00;99867.86;223538;1266;139140;-81
2023/11/27 03:48:18;;;;;;;13.90;6.00;;;;;;;-1.48;100.00;99875.70;223292;1265;140324;-81
2023/11/27 03:54:16;;;;;;;;;;;;;;;;;;;;;
2023/11/27 04:06:19;;;;;;;;;;;;;;;;;;;;;
2023/11/27 04:12:21;;;;;;;15.50;7.00;;;;;;;-1.73;100.00;99870.69;223753;1266;139153;-80
2023/11/27 04:18:22;;;;;;;16.40;7.00;;;;;;;-1.84;100.00;99862.27;223204;1266;139848;-80
2023/11/27 04:30:17;;;;;;;;;;;;;;;;;;;;;
2023/11/27 04:36:19;;;;;;;12.80;5.70;;;;;;;-2.02;100.00;99853.27;223675;1269;139203;-80
2023/11/27 04:48:22;;;;;;;13.40;6.50;;;;;;;-2.11;100.00;99854.55;223190;1270;139923;-80
2023/11/27 04:54:16;;;;;;;16.00;8.70;;;;;;;-2.09;100.00;99856.52;223760;1266;139021;-80
2023/11/27 05:00:17;;;;;;;16.50;7.60;;;;;;;-2.06;100.00;99862.30;223097;1270;139685;-80
2023/11/27 05:06:19;;;;;;;14.80;6.70;;;;;;;-2.03;100.00;99858.07;223765;1269;138927;-80
2023/11/27 05:12:09;;;;;;;14.60;6.70;;;;;;;-2.01;100.00;99857.77;223747;1267;139478;-80
2023/11/27 05:18:08;;;;;;;;;;;;;;;;;;;;;
2023/11/27 05:30:05;;;;;;;20.60;8.80;;;;;;;-1.89;100.00;99859.68;223108;1268;139997;-80
2023/11/27 05:36:06;;;;;;;19.00;8.90;;;;;;;-1.86;100.00;99859.45;223681;1269;138896;-81
2023/11/27 05:48:12;;;;;;;20.50;9.00;;;;;;;-1.80;100.00;99864.84;223078;1265;139837;-81
2023/11/27 05:54:01;;;;;;;;;;;;;;;;;;;;;
2023/11/27 06:00:03;;;;;;;21.70;8.60;;;;;;;-1.79;100.00;99857.84;223180;1269;139802;-82
2023/11/27 06:06:04;;;;;;;18.20;8.60;;;;;;;-1.81;100.00;99854.93;223732;1266;139538;-82
2023/11/27 06:12:04;;;;;;;24.30;10.00;;;;;;;-1.82;100.00;99852.90;223621;1269;138841;-82
2023/11/27 06:17:43;;;;;;;24.00;10.00;;;;;;;-1.81;100.00;99855.00;223209;1267;140002;-82
2023/11/27 06:23:35;;;;;;;23.10;10.70;;;;;;;-1.79;100.00;99865.07;223788;1265;139069;-80
2023/11/27 06:29:30;;;;;;;24.80;10.80;;;;;;;-1.79;100.00;99857.89;223252;1267;140063;-81
2023/11/27 06:41:16;;;;;;;;;;;;;;;;;;;;;
2023/11/27 06:47:18;;;;;;;27.20;11.60;;;;;;;-1.80;100.00;99858.75;223138;1267;140339;-80
2023/11/27 06:53:02;;;;;;;25.70;11.90;;;;;;;-1.83;100.00;99864.00;223705;1267;139456;-81
2023/11/27 06:59:07;;;;;;;31.10;13.20;;;;;;;-1.88;100.00;99863.09;223194;1267;139407;-81
2023/11/27 07:05:09;;;;;;;37.20;16.00;;;;;;;-1.86;100.00;99858.19;223691;1267;139668;-80
2023/11/27 07:11:09;;;;;;;31.20;13.90;;;;;;;-1.81;100.00;99860.77;223135;1270;140276;-80
2023/11/27 07:16:59;;;;;;;33.20;15.20;;;;;;;-1.85;100.00;99856.82;223262;1265;140075;-80
2023/11/27 07:22:46;;;;;;;31.30;14.40;;;;;;;-1.82;100.00;99857.59;223782;1267;139156;-80
2023/11/27 07:28:30;;;;;;;30.60;13.80;;;;;;;-1.80;100.00;99859.55;223217;1267;140543;-79
2023/11/27 07:34:32;;;;;;;;;;;;;;;;;;;;;
2023/11/27 07:40:33;;;;;;;;;;;;;;;;;;;;;
2023/11/27 07:46:36;;;;;;;33.90;15.10;;;;;;;-1.69;100.00;99859.69;223229;1265;140739;-80
2023/11/27 07:52:36;;;;;;;32.60;15.40;;;;;;;-1.68;100.00;99852.27;223757;1265;139189;-79
2023/11/27 07:58:38;;;;;;;37.40;16.00;;;;;;;-1.67;100.00;99851.00;223082;1265;140367;-80
2023/11/27 08:04:39;;;;;;;28.90;12.80;;;;;;;-1.63;100.00;99858.64;223684;1266;139261;-79
2023/11/27 08:10:35;;;;;;;;;;;;;;;;;;;;;
2023/11/27 08:16:19;;;;;;;;;;;;;;;-1.49;100.00;99853.95;223207;1265;140138;-80
2023/11/27 08:22:18;;;;;;;33.30;14.20;;;;;;;-1.47;100.00;99855.16;223751;1265;125628;-80
2023/11/27 08:28:21;;;;;;;34.10;15.80;;;;;;;-1.40;100.00;99853.44;223210;1265;140533;-80
2023/11/27 08:34:04;;;;;;;32.90;14.60;;;;;;;-1.34;100.00;99847.88;223661;1265;139143;-80
2023/11/27 08:39:48;;;;;;;34.40;15.20;;;;;;;-1.29;100.00;99838.77;223267;1265;140345;-79
2023/11/27 08:51:21;;;;;;;36.80;15.60;;;;;;;-1.15;100.00;99834.05;223560;1265;223221;-79
2023/11/27 08:57:12;;;;;;;;;;;;;;;;;;;;;
2023/11/27 09:03:06;;;;;;;38.70;16.00;;;;;;;-1.04;100.00;99832.48;223539;1265;139482;-79
2023/11/27 09:08:53;;;;;;;38.20;16.70;;;;;;;-1.04;100.00;99829.88;223223;1265;140233;-79
2023/11/27 09:14:23;;;;;;;44.40;18.70;;;;;;;-0.95;100.00;99834.80;223673;1265;139514;-79
2023/11/27 09:20:18;;;;;;;46.10;20.10;;;;;;;-0.81;100.00;99832.68;223166;1266;140024;-80
2023/11/27 09:26:00;;;;;;;53.90;22.40;;;;;;;-0.74;100.00;99831.37;223788;1265;139350;-79
2023/11/27 09:31:45;;;;;;;45.30;21.10;;;;;;;-0.75;100.00;99833.23;223810;1265;139126;-80
2023/11/27 09:37:44;;;;;;;;;;;;;;;;;;;;;
2023/11/27 09:43:39;;;;;;;;;;;;;;;;;;;;;
2023/11/27 09:49:36;;;;;;;43.60;18.10;;;;;;;-0.60;100.00;99814.30;223411;1265;140656;-79
2023/11/27 09:56:02;;;;;;;41.10;16.70;;;;;;;-0.50;100.00;99802.73;223905;1265;107683;-79
2023/11/27 10:01:20;;;;;;;;;;;;;;;;;;;;;
2023/11/27 10:07:15;;;;;;;44.70;18.50;;;;;;;-0.48;100.00;99784.60;223402;1265;140155;-79
2023/11/27 10:13:18;;;;;;;43.00;19.00;;;;;;;-0.52;100.00;99781.57;223635;1265;139223;-79
2023/11/27 10:19:19;;;;;;;46.40;18.10;;;;;;;-0.43;100.00;99770.79;223229;1266;140029;-80
2023/11/27 10:25:18;;;;;;;39.80;17.30;;;;;;;-0.33;100.00;99769.27;223658;1266;140057;-79
2023/11/27 10:31:06;;;;;;;42.00;17.60;;;;;;;-0.24;100.00;99770.82;223408;1265;139609;-80
2023/11/27 10:43:10;;;;;;;42.10;16.80;;;;;;;-0.12;100.00;99751.64;223801;1265;139504;-80
2023/11/27 10:55:10;;;;;;;35.50;16.30;;;;;;;-0.11;100.00;99750.00;223748;1265;139617;-80
2023/11/27 11:01:36;;;;;;;47.10;18.50;;;;;;;-0.15;100.00;99747.13;223271;1265;139748;-81
2023/11/27 11:07:19;;;;;;;;;;;;;;;;;;;;;
2023/11/27 11:13:19;;;;;;;;;;;;;;;;;;;;;
2023/11/27 11:19:45;;;;;;;36.20;14.70;;;;;;;-0.15;100.00;99723.55;223270;1265;140046;-80
2023/11/27 11:32:41;;;;;;;31.30;14.30;;;;;;;-0.16;100.00;99728.30;221113;1279;362087;-80
2023/11/27 11:38:57;;;;;;;28.90;13.20;;;;;;;-0.14;100.00;99731.16;222723;1272;139960;-81
2023/11/27 11:45:01;;;;;;;34.40;15.10;;;;;;;-0.09;100.00;99725.22;223836;1265;139239;-81
2023/11/27 11:51:04;;;;;;;36.20;14.30;;;;;;;0.05;100.00;99731.48;223190;1265;139851;-80
2023/11/27 11:57:03;;;;;;;;;;;;;;;;;;;;;
2023/11/27 12:03:09;;;;;;;29.40;13.70;;;;;;;0.18;100.00;99725.71;223839;1265;139051;-82
2023/11/27 12:09:09;;;;;;;34.10;14.20;;;;;;;0.18;100.00;99717.44;223266;1265;140010;-83
2023/11/27 12:15:11;;;;;;;28.80;13.70;;;;;;;0.21;100.00;99705.96;224030;1265;138148;-82
2023/11/27 12:21:04;;;;;;;;;;;;;;;;;;;;;
2023/11/27 12:27:07;;;;;;;33.20;14.90;;;;;;;0.14;100.00;99699.56;223152;1265;139794;-82
2023/11/27 12:32:57;;;;;;;28.70;13.50;;;;;;;0.17;100.00;99697.70;223809;1265;138813;-82
2023/11/27 12:38:58;;;;;;;29.80;13.20;;;;;;;0.12;100.00;99702.50;223259;1265;139629;-82
2023/11/27 12:45:12;;;;;;;32.50;13.30;;;;;;;0.02;100.00;99697.30;223709;1265;138733;-82
2023/11/27 12:51:11;;;;;;;;;;;;;;;;;;;;;
2023/11/27 12:57:15;;;;;;;32.00;13.80;;;;;;;-0.04;100.00;99676.33;223200;1265;140472;-82
2023/11/27 13:03:22;;;;;;;34.30;13.90;;;;;;;-0.10;100.00;99664.05;223729;1266;139369;-80
2023/11/27 13:09:22;;;;;;;25.40;11.30;;;;;;;-0.12;100.00;99653.67;223400;1265;139445;-82
2023/11/27 13:15:22;;;;;;;;;;;;;;;;;;;;;
2023/11/27 13:21:26;;;;;;;32.00;13.70;;;;;;;-0.18;100.00;99641.38;223306;1265;139703;-82
2023/11/27 13:27:07;;;;;;;33.70;13.60;;;;;;;-0.24;100.00;99630.71;223198;1265;139849;-82
2023/11/27 13:33:30;;;;;;;38.20;17.00;;;;;;;-0.30;100.00;99622.11;223841;1265;139713;-82
2023/11/27 13:39:07;;;;;;;36.80;16.10;;;;;;;-0.35;100.00;99615.58;223082;1265;140159;-82
2023/11/27 13:45:14;;;;;;;35.90;15.90;;;;;;;-0.44;100.00;99607.00;223745;1265;139358;-82
2023/11/27 13:51:33;;;;;;;38.60;16.20;;;;;;;-0.43;100.00;99604.11;223202;1265;139735;-82
2023/11/27 13:57:09;;;;;;;;;;;;;;;;;;;;;
2023/11/27 14:03:11;;;;;;;35.00;16.00;;;;;;;-0.63;100.00;99576.36;223851;1265;139633;-81
2023/11/27 14:33:40;;;;;;;;;;;;;;;;;;;;;
2023/11/27 14:39:46;;;;;;;44.30;20.70;;;;;;;-1.17;100.00;99526.59;223236;1265;140154;-81
2023/11/27 14:45:48;;;;;;;45.40;20.90;;;;;;;-1.25;100.00;99521.94;223661;1265;139311;-82
2023/11/27 14:51:48;;;;;;;46.30;21.60;;;;;;;-1.29;100.00;99516.46;223725;1265;223294;-81
2023/11/27 14:57:49;;;;;;;;;;;;;;;;;;;;;
2023/11/27 15:03:51;;;;;;;93.60;35.60;;;;;;;-1.58;100.00;99505.17;223522;1265;139261;-81
2023/11/27 15:09:36;;;;;;;67.60;30.40;;;;;;;-1.61;100.00;99498.01;223245;1265;140191;-81
2023/11/27 15:15:31;;;;;;;110.90;50.60;;;;;;;-1.65;100.00;99492.84;223783;1265;139737;-81
2023/11/27 15:21:22;;;;;;;84.30;38.30;;;;;;;-1.76;100.00;99499.92;223459;1265;140168;-80
2023/11/27 15:27:12;;;;;;;64.70;29.70;;;;;;;-1.91;100.00;99505.80;223251;1265;140423;-80
2023/11/27 15:32:57;;;;;;;58.10;27.70;;;;;;;-1.99;100.00;99505.32;223747;1265;161528;-79
2023/11/27 15:38:59;;;;;;;59.70;27.80;;;;;;;-1.99;100.00;99499.02;223303;1265;140304;-81
2023/11/27 15:44:43;;;;;;;60.40;26.10;;;;;;;-2.01;100.00;99497.52;223689;1265;139238;-81
2023/11/27 15:50:31;;;;;;;62.40;29.40;;;;;;;-2.11;100.00;99498.02;223326;1265;139862;-80
2023/11/27 15:56:33;;;;;;;64.30;27.40;;;;;;;-2.11;100.00;99495.48;223266;1266;140385;-79
2023/11/27 16:02:21;;;;;;;;;;;;;;;;;;;;;
2023/11/27 16:08:16;;;;;;;64.30;30.80;;;;;;;-2.39;100.00;99489.67;223352;1265;140278;-79
2023/11/27 16:14:17;;;;;;;79.20;33.80;;;;;;;-2.41;100.00;99487.30;223783;1265;110923;-81
2023/11/27 16:20:17;;;;;;;78.60;36.30;;;;;;;-2.46;100.00;99485.93;223269;1265;140140;-79
2023/11/27 16:26:17;;;;;;;;;;;;;;;;;;;;;
2023/11/27 16:32:10;;;;;;;;;;;;;;;;;;;;;
2023/11/27 16:38:00;;;;;;;79.90;36.90;;;;;;;-2.73;100.00;99475.20;223186;1265;140046;-79
2023/11/27 16:43:54;;;;;;;;;;;;;;;;;;;;;
2023/11/27 16:49:56;;;;;;;90.50;41.20;;;;;;;-2.75;100.00;99458.59;223026;1265;140608;-79
2023/11/27 16:55:59;;;;;;;92.80;39.00;;;;;;;-2.89;100.00;99443.00;223671;1265;138973;-79
2023/11/27 17:01:58;;;;;;;90.10;40.50;;;;;;;-2.88;100.00;99433.42;223753;1265;139106;-79
2023/11/27 17:07:59;;;;;;;94.80;42.50;;;;;;;-2.89;100.00;99429.25;223186;1265;140141;-79
2023/11/27 17:13:46;;;;;;;;;;;;;;;;;;;;;
2023/11/27 17:19:48;;;;;;;90.90;38.40;;;;;;;-2.96;100.00;99423.06;223202;1265;140201;-78
2023/11/27 17:25:39;;;;;;;94.40;41.40;;;;;;;-3.02;100.00;99412.55;223706;1265;139159;-77
2023/11/27 17:31:33;;;;;;;89.50;38.30;;;;;;;-3.03;100.00;99407.27;223760;1265;139068;-77
2023/11/27 17:37:34;;;;;;;94.90;39.70;;;;;;;-3.07;100.00;99398.23;223167;1266;140366;-78
2023/11/27 17:43:35;;;;;;;89.70;40.70;;;;;;;-3.17;100.00;99392.44;223694;1266;139154;-78
2023/11/27 17:49:36;;;;;;;80.30;35.90;;;;;;;-3.19;100.00;99391.73;223160;1270;140306;-78
2023/11/27 17:55:40;;;;;;;80.80;35.20;;;;;;;-3.22;100.00;99386.51;223750;1270;139036;-78
2023/11/27 18:07:40;;;;;;;84.90;38.10;;;;;;;-3.34;100.00;99379.20;223167;1265;140204;-78
2023/11/27 18:13:41;;;;;;;81.80;36.70;;;;;;;-3.36;100.00;99374.30;223676;1265;139551;-79
2023/11/27 18:19:41;;;;;;;;;;;;;;;;;;;;;
2023/11/27 18:25:44;;;;;;;74.20;34.10;;;;;;;-3.40;100.00;99358.97;223674;1269;139548;-78
2023/11/27 18:31:26;;;;;;;;;;;;;;;;;;;;;
2023/11/27 18:37:28;;;;;;;85.30;38.50;;;;;;;-3.40;100.00;99351.56;223171;1266;140278;-78
2023/11/27 18:43:29;;;;;;;86.60;40.50;;;;;;;-3.45;100.00;99339.21;223645;1269;139091;-78
2023/11/27 18:49:31;;;;;;;114.00;51.80;;;;;;;-3.48;100.00;99337.44;223184;1266;140098;-78
2023/11/27 18:55:42;;;;;;;;;;;;;;;;;;;;;
2023/11/27 19:01:23;;;;;;;114.60;48.00;;;;;;;-3.57;100.00;99309.51;223270;1266;223113;-77
2023/11/27 19:07:24;;;;;;;115.00;51.00;;;;;;;-3.58;100.00;99307.48;223140;1265;140964;-77
2023/11/27 19:13:25;;;;;;;110.50;47.40;;;;;;;-3.62;100.00;99303.20;223641;1266;139530;-78
2023/11/27 19:19:27;;;;;;;105.20;47.80;;;;;;;-3.66;100.00;99294.95;223088;1266;140428;-79
2023/11/27 19:25:27;;;;;;;119.10;56.20;;;;;;;-3.66;100.00;99284.55;223748;1266;140448;-79
2023/11/27 19:31:27;;;;;;;131.60;57.60;;;;;;;-3.69;100.00;99283.65;223261;1265;140714;-79
2023/11/27 19:37:14;;;;;;;146.20;60.50;;;;;;;-3.72;100.00;99281.06;223094;1265;140700;-79
2023/11/27 19:43:06;;;;;;;169.00;70.30;;;;;;;-3.73;100.00;99280.79;223739;1266;139358;-79
2023/11/27 19:49:04;;;;;;;;;;;;;;;;;;;;;
2023/11/27 19:55:06;;;;;;;136.30;56.00;;;;;;;-3.82;100.00;99278.01;223774;1266;139244;-77
2023/11/27 20:01:09;;;;;;;99.10;43.50;;;;;;;-3.94;100.00;99271.06;223109;1269;140376;-77
2023/11/27 20:07:09;;;;;;;140.50;53.60;;;;;;;-3.92;100.00;99267.09;223197;1265;139988;-77
2023/11/27 20:13:03;;;;;;;154.20;58.80;;;;;;;-3.89;100.00;99260.50;223727;1266;139241;-77
2023/11/27 20:19:05;;;;;;;164.30;60.70;;;;;;;-3.88;100.00;99260.86;223246;1266;140002;-78
2023/11/27 20:30:59;;;;;;;140.70;57.90;;;;;;;-3.87;100.00;99252.05;223182;1266;140960;-78
2023/11/27 20:37:00;;;;;;;153.60;56.60;;;;;;;-3.88;100.00;99247.95;223202;1266;140911;-78
2023/11/27 20:43:05;;;;;;;116.00;48.50;;;;;;;-3.91;100.00;99236.34;223760;1266;139814;-78
2023/11/27 20:49:02;;;;;;;140.60;55.90;;;;;;;-3.92;100.00;99235.92;223105;1266;140235;-78
2023/11/27 20:54:56;;;;;;;131.50;54.80;;;;;;;-3.95;100.00;99236.23;223674;1266;139442;-78
2023/11/27 21:00:56;;;;;;;154.50;60.70;;;;;;;-3.98;100.00;99231.63;223211;1266;140329;-77
2023/11/27 21:06:57;;;;;;;137.50;54.60;;;;;;;-4.01;100.00;99222.36;223153;1266;140418;-78
2023/11/27 21:12:57;;;;;;;181.70;64.20;;;;;;;-4.03;100.00;99213.52;223754;1266;139221;-78
2023/11/27 21:25:07;;;;;;;;;;;;;;;;;;;;;
2023/11/27 21:30:51;;;;;;;189.10;66.90;;;;;;;-4.06;100.00;99172.75;222986;1266;140545;-78
2023/11/27 21:36:52;;;;;;;292.90;116.80;;;;;;;-4.08;100.00;99166.65;223134;1267;140534;-78
2023/11/27 21:42:39;;;;;;;442.20;142.50;;;;;;;-4.09;100.00;99162.00;219626;1266;5396163;-77
2023/11/27 21:48:34;;;;;;;;;;;;;;;;;;;;;
2023/11/27 21:54:36;;;;;;;130.60;46.70;;;;;;;-3.95;100.00;99138.50;223637;1269;139547;-78
2023/11/27 22:00:37;;;;;;;420.10;119.20;;;;;;;-3.89;100.00;99131.66;223173;1266;140657;-78
2023/11/27 22:06:38;;;;;;;219.80;62.70;;;;;;;-3.83;100.00;99131.98;223060;1266;140457;-78
2023/11/27 22:12:40;;;;;;;144.60;55.10;;;;;;;-3.76;100.00;99122.86;223619;1267;139786;-78
2023/11/27 22:18:44;;;;;;;263.70;95.20;;;;;;;-3.66;100.00;99117.98;223159;1266;140217;-78
2023/11/27 22:24:45;;;;;;;228.00;65.40;;;;;;;-3.58;100.00;99109.72;223619;1269;139345;-78
2023/11/27 22:30:46;;;;;;;203.20;62.20;;;;;;;-3.55;100.00;99116.25;223189;1266;140709;-78
2023/11/27 22:36:47;;;;;;;158.70;51.40;;;;;;;-3.55;100.00;99116.70;223154;1269;141759;-78
2023/11/27 22:48:41;;;;;;;;;;;;;;;;;;;;;
2023/11/27 22:54:41;;;;;;;;;;;;;;;;;;;;;
2023/11/27 23:00:43;;;;;;;102.30;37.00;;;;;;;-3.38;100.00;99100.58;223092;1266;140448;-78
2023/11/27 23:06:44;;;;;;;106.70;41.00;;;;;;;-3.36;100.00;99091.14;223292;1266;140722;-79
2023/11/27 23:12:48;;;;;;;234.40;69.60;;;;;;;-3.34;100.00;99090.83;223757;1268;140047;-79
2023/11/27 23:18:49;;;;;;;200.20;59.60;;;;;;;-3.32;100.00;99083.14;223227;1266;140494;-79
2023/11/27 23:24:42;;;;;;;175.60;52.70;;;;;;;-3.32;100.00;99074.73;223677;1267;139472;-79
2023/11/27 23:30:23;;;;;;;;;;;;;;;;;;;;;
2023/11/27 23:36:25;;;;;;;;;;;;;;;;;;;;;
2023/11/27 23:42:26;;;;;;;116.20;38.70;;;;;;;-3.33;100.00;99058.45;223675;1267;139387;-79
2023/11/27 23:48:28;;;;;;;78.10;30.30;;;;;;;-3.32;100.00;99060.33;223144;1267;140327;-79
2023/11/27 23:54:31;;;;;;;65.30;26.40;;;;;;;-3.32;100.00;99065.42;223828;1265;139577;-79
